Time;durP1;ratioP1;P1;durP2;ratioP2;P2;SDS_P1;SDS_P2;PMS_P1;PMS_P2;Temp;Humidity;BMP_temperature;BMP_pressure;BME280_temperature;BME280_humidity;BME280_pressure;Samples;Min_cycle;Max_cycle;Signal;HPM_P1;HPM_P2
2022/04/06 00:01:39;;;;;;;;;;;;;;;3.64;73.78;94911.06;5113968;28;1019;-51
2022/04/06 00:04:06;;;;;;;;;;;;;;;3.61;73.21;94909.50;5113770;28;1007;-51
2022/04/06 00:06:32;;;;;;;;;;;;;;;3.35;73.50;94910.78;5113647;28;1036;-51
2022/04/06 00:08:58;;;;;;;;;;;;;;;3.17;75.85;94913.06;5113344;28;1028;-51
2022/04/06 00:11:24;;;;;;;;;;;;;;;3.31;75.06;94918.09;5113495;28;1241;-51
2022/04/06 00:13:50;;;;;;;;;;;;;;;3.30;74.84;94917.28;5116267;28;1092;-51
2022/04/06 00:16:17;;;;;;;;;;;;;;;3.30;75.00;94908.47;5117891;28;2000;-51
2022/04/06 00:18:43;;;;;;;;;;;;;;;3.46;74.84;94908.13;5117747;28;1048;-55
2022/04/06 00:21:09;;;;;;;;;;;;;;;3.58;73.79;94914.22;5117739;28;1027;-51
2022/04/06 00:23:35;;;;;;;;;;;;;;;3.51;73.36;94911.22;5117672;28;980;-51
2022/04/06 00:26:01;;;;;;;;;;;;;;;3.42;73.20;94915.44;5117783;28;949;-50
2022/04/06 00:28:27;;;;;;;;;;;;;;;3.23;74.54;94917.88;5117670;28;1062;-51
2022/04/06 00:30:53;;;;;;;;;;;;;;;3.40;74.26;94924.47;5117805;28;996;-50
2022/04/06 00:33:19;;;;;;;;;;;;;;;3.54;73.51;94926.81;5117471;28;1115;-51
2022/04/06 00:35:45;;;;;;;;;;;;;;;3.56;72.93;94918.78;5117440;28;967;-50
2022/04/06 00:38:11;;;;;;;;;;;;;;;3.46;73.12;94923.97;5117199;28;1989;-50
2022/04/06 00:40:38;;;;;;;;;;;;;;;3.48;73.61;94922.03;5117567;28;1038;-50
2022/04/06 00:43:08;;;;;;;;;;;;;;;3.46;73.40;94922.16;5117204;28;964;-50
2022/04/06 00:45:34;;;;;;;;;;;;;;;3.42;73.94;94922.53;5117203;27;1036;-50
2022/04/06 00:48:00;;;;;;;;;;;;;;;3.40;74.20;94921.81;5117112;28;1040;-51
2022/04/06 00:50:26;;;;;;;;;;;;;;;3.47;73.35;94917.69;5116132;28;1003;-51
2022/04/06 00:52:56;;;;;;;;;;;;;;;3.37;73.02;94920.25;5117199;28;1223;-51
2022/04/06 00:55:29;;;;;;;;;;;;;;;3.20;72.75;94924.22;5116766;28;1075;-50
2022/04/06 00:57:56;;;;;;;;;;;;;;;3.22;74.08;94924.94;5117174;27;1918;-51
2022/04/06 01:00:22;;;;;;;;;;;;;;;3.23;74.48;94916.06;5117115;28;1035;-50
2022/04/06 01:02:48;;;;;;;;;;;;;;;3.28;74.03;94915.69;5116966;28;987;-51
2022/04/06 01:05:14;;;;;;;;;;;;;;;3.26;73.61;94912.34;5117019;27;983;-50
2022/04/06 01:07:42;;;;;;;;;;;;;;;3.23;72.89;94917.88;5116988;28;1099;-51
2022/04/06 01:10:08;;;;;;;;;;;;;;;3.15;73.07;94921.16;5116584;28;1817;-51
2022/04/06 01:12:38;;;;;;;;;;;;;;;3.05;73.44;94923.66;5116595;28;1064;-51
2022/04/06 01:15:04;;;;;;;;;;;;;;;3.03;74.07;94916.81;5116482;28;1031;-51
2022/04/06 01:17:34;;;;;;;;;;;;;;;3.01;74.34;94926.66;5116729;28;1926;-51
2022/04/06 01:20:00;;;;;;;;;;;;;;;3.09;73.27;94922.47;5116404;28;1063;-50
2022/04/06 01:22:27;;;;;;;;;;;;;;;2.93;72.87;94914.88;5116397;28;1015;-51
2022/04/06 01:24:53;;;;;;;;;;;;;;;2.79;73.10;94922.19;5116337;28;952;-50
2022/04/06 01:27:19;;;;;;;;;;;;;;;2.74;73.37;94919.94;5116662;28;1019;-51
2022/04/06 01:29:46;;;;;;;;;;;;;;;2.78;73.83;94918.72;5116455;28;992;-50
2022/04/06 01:32:12;;;;;;;;;;;;;;;2.81;73.90;94923.78;5116459;28;1082;-50
2022/04/06 01:34:39;;;;;;;;;;;;;;;2.84;74.09;94915.59;5116074;28;1099;-50
2022/04/06 01:37:06;;;;;;;;;;;;;;;2.79;73.96;94922.19;5116265;28;1910;-50
2022/04/06 01:39:33;;;;;;;;;;;;;;;2.68;73.52;94923.06;5115986;28;1123;-50
2022/04/06 01:41:59;;;;;;;;;;;;;;;2.85;74.38;94916.47;5116141;28;972;-50
2022/04/06 01:44:25;;;;;;;;;;;;;;;2.98;74.41;94918.97;5115942;28;1091;-50
2022/04/06 01:46:51;;;;;;;;;;;;;;;2.98;73.83;94926.88;5116114;28;1058;-51
2022/04/06 01:52:13;;;;;;;;;;;;;;;2.57;73.87;94946.81;5116085;28;1157;-51
2022/04/06 01:54:43;;;;;;;;;;;;;;;2.51;74.35;94941.03;5116067;28;980;-50
2022/04/06 01:57:10;;;;;;;;;;;;;;;2.59;73.90;94947.53;5115743;28;1918;-51
2022/04/06 01:59:36;;;;;;;;;;;;;;;2.66;74.07;94940.81;5115733;28;1030;-50
2022/04/06 02:02:03;;;;;;;;;;;;;;;2.65;73.87;94942.59;5115759;28;1051;-50
2022/04/06 02:04:29;;;;;;;;;;;;;;;2.50;74.13;94947.28;5115872;28;964;-50
2022/04/06 02:06:55;;;;;;;;;;;;;;;2.56;74.24;94953.03;5115727;28;972;-50
2022/04/06 02:09:21;;;;;;;;;;;;;;;2.82;73.98;94945.75;5115562;28;1076;-51
2022/04/06 02:11:48;;;;;;;;;;;;;;;3.06;73.00;94949.09;5115386;28;1012;-51
2022/04/06 02:14:14;;;;;;;;;;;;;;;2.64;73.04;94948.03;5115352;28;1092;-50
2022/04/06 02:16:40;;;;;;;;;;;;;;;2.57;74.00;94941.53;5115527;28;1999;-51
2022/04/06 02:19:06;;;;;;;;;;;;;;;2.43;74.12;94951.34;5115631;28;1026;-51
2022/04/06 02:21:33;;;;;;;;;;;;;;;2.37;74.58;94949.13;5115531;28;1039;-50
2022/04/06 02:23:59;;;;;;;;;;;;;;;2.47;74.09;94944.84;5115207;27;1087;-51
2022/04/06 02:26:27;;;;;;;;;;;;;;;2.30;73.75;94955.84;5115383;28;1035;-50
2022/04/06 02:28:53;;;;;;;;;;;;;;;2.12;74.54;94950.97;5115114;28;1028;-50
2022/04/06 02:31:19;;;;;;;;;;;;;;;1.86;75.75;94947.66;5115011;28;1038;-50
2022/04/06 02:33:45;;;;;;;;;;;;;;;1.81;75.85;94947.16;5115335;28;943;-50
2022/04/06 02:36:11;;;;;;;;;;;;;;;2.09;75.78;94958.31;5114527;28;979;-51
2022/04/06 02:38:38;;;;;;;;;;;;;;;2.32;75.63;94960.06;5114897;28;1910;-50
2022/04/06 02:41:08;;;;;;;;;;;;;;;2.40;74.59;94958.63;5114758;27;1084;-50
2022/04/06 02:43:34;;;;;;;;;;;;;;;2.38;74.45;94950.84;5114767;28;975;-50
2022/04/06 02:46:00;;;;;;;;;;;;;;;2.38;74.07;94966.66;5114579;28;1036;-51
2022/04/06 02:48:26;;;;;;;;;;;;;;;2.43;74.01;94955.75;5115166;28;976;-51
2022/04/06 02:50:53;;;;;;;;;;;;;;;2.39;73.96;94954.31;5113604;28;1169;-51
2022/04/06 02:53:19;;;;;;;;;;;;;;;2.28;74.05;94963.03;5114800;28;1062;-50
2022/04/06 02:55:45;;;;;;;;;;;;;;;2.33;74.29;94959.09;5114557;28;1127;-51
2022/04/06 02:58:11;;;;;;;;;;;;;;;2.33;74.08;94971.44;5113498;28;1901;-50
2022/04/06 03:00:37;;;;;;;;;;;;;;;2.18;74.47;94967.31;5114737;28;1015;-50
2022/04/06 03:03:03;;;;;;;;;;;;;;;2.11;75.49;94967.78;5114747;28;960;-50
2022/04/06 03:05:29;;;;;;;;;;;;;;;2.20;74.88;94970.69;5114872;28;1034;-51
2022/04/06 03:07:55;;;;;;;;;;;;;;;2.28;74.05;94970.97;5113631;28;1016;-51
2022/04/06 03:10:22;;;;;;;;;;;;;;;2.17;74.28;94976.19;5114479;28;1216;-50
2022/04/06 03:12:48;;;;;;;;;;;;;;;2.15;74.65;94982.41;5113933;28;1163;-51
2022/04/06 03:15:14;;;;;;;;;;;;;;;2.05;73.89;94981.44;5115321;28;1042;-50
2022/04/06 03:17:41;;;;;;;;;;;;;;;2.06;74.15;94975.19;5114521;28;1972;-50
2022/04/06 03:20:08;;;;;;;;;;;;;;;1.92;74.83;94980.66;5114311;28;1040;-50
2022/04/06 03:22:34;;;;;;;;;;;;;;;1.97;74.77;94975.03;5114097;28;1039;-50
2022/04/06 03:25:00;;;;;;;;;;;;;;;1.93;74.20;94979.69;5114064;28;1044;-50
2022/04/06 03:27:26;;;;;;;;;;;;;;;1.90;74.93;94983.38;5113985;28;1024;-51
2022/04/06 03:29:52;;;;;;;;;;;;;;;1.88;74.35;94971.28;5114251;28;1014;-50
2022/04/06 03:32:18;;;;;;;;;;;;;;;1.97;73.94;94978.50;5113802;28;1037;-51
2022/04/06 03:34:44;;;;;;;;;;;;;;;1.76;75.46;94983.53;5114196;28;1115;-50
2022/04/06 03:37:10;;;;;;;;;;;;;;;1.91;75.45;94985.06;5113693;28;1901;-51
2022/04/06 03:39:36;;;;;;;;;;;;;;;2.00;75.42;94985.34;5114198;28;1028;-51
2022/04/06 03:42:02;;;;;;;;;;;;;;;2.03;75.32;94991.25;5113418;28;1040;-51
2022/04/06 03:44:28;;;;;;;;;;;;;;;2.14;74.13;94996.56;5112918;28;917;-51
2022/04/06 03:46:56;;;;;;;;;;;;;;;1.75;74.18;94995.06;5112994;28;1028;-50
2022/04/06 03:49:22;;;;;;;;;;;;;;;1.56;75.11;95001.66;5114040;28;977;-51
2022/04/06 03:51:48;;;;;;;;;;;;;;;1.52;74.90;95000.19;5113654;28;1213;-50
2022/04/06 03:54:14;;;;;;;;;;;;;;;1.59;75.13;94994.47;5113786;28;1106;-50
2022/04/06 03:56:40;;;;;;;;;;;;;;;1.73;75.25;95003.06;5113667;28;1905;-50
2022/04/06 03:59:06;;;;;;;;;;;;;;;1.53;74.61;95001.03;5113636;28;1052;-50
2022/04/06 04:01:35;;;;;;;;;;;;;;;1.70;74.28;95003.28;5113784;28;972;-50
2022/04/06 04:04:01;;;;;;;;;;;;;;;1.72;74.02;95011.09;5113547;28;1016;-50
2022/04/06 04:06:27;;;;;;;;;;;;;;;1.41;75.26;95010.66;5113616;28;973;-50
2022/04/06 04:08:53;;;;;;;;;;;;;;;1.25;75.93;95016.19;5113526;28;1040;-50
2022/04/06 04:11:19;;;;;;;;;;;;;;;1.26;76.66;95017.84;5113603;28;1031;-50
2022/04/06 04:13:45;;;;;;;;;;;;;;;1.51;76.87;95029.28;5113126;28;1096;-50
2022/04/06 04:16:11;;;;;;;;;;;;;;;1.73;75.96;95036.50;5113874;28;1030;-50
2022/04/06 04:18:37;;;;;;;;;;;;;;;1.93;75.80;95030.59;5112385;28;1910;-50
2022/04/06 04:23:48;;;;;;;;;;;;;;;1.51;74.52;95034.56;5113468;28;917;-50
2022/04/06 04:26:14;;;;;;;;;;;;;;;1.53;75.32;95040.56;5113768;28;988;-50
2022/04/06 04:28:40;;;;;;;;;;;;;;;1.75;75.16;95034.59;5113196;28;1095;-50
2022/04/06 04:31:06;;;;;;;;;;;;;;;1.72;75.02;95040.09;5113594;28;1043;-50
2022/04/06 04:33:32;;;;;;;;;;;;;;;1.92;74.14;95041.28;5113472;28;960;-50
2022/04/06 04:35:58;;;;;;;;;;;;;;;2.36;73.45;95039.81;5113320;28;1052;-51
2022/04/06 04:38:24;;;;;;;;;;;;;;;2.65;72.41;95044.72;5113104;28;1913;-51
2022/04/06 04:40:51;;;;;;;;;;;;;;;3.04;71.23;95042.66;5113330;28;1026;-50
2022/04/06 04:43:17;;;;;;;;;;;;;;;3.52;70.25;95045.06;5112899;28;1837;-51
2022/04/06 04:45:43;;;;;;;;;;;;;;;3.69;69.59;95047.22;5113571;28;1012;-50
2022/04/06 04:48:09;;;;;;;;;;;;;;;3.97;68.46;95054.78;5113363;28;1039;-50
2022/04/06 04:50:35;;;;;;;;;;;;;;;4.83;66.81;95053.84;5113079;28;1020;-50
2022/04/06 04:53:01;;;;;;;;;;;;;;;5.32;65.17;95053.31;5113011;28;1188;-51
2022/04/06 04:55:27;;;;;;;;;;;;;;;5.65;63.88;95055.72;5113223;28;976;-50
2022/04/06 04:57:53;;;;;;;;;;;;;;;5.27;63.72;95054.56;5113159;28;1995;-51
2022/04/06 05:00:19;;;;;;;;;;;;;;;5.06;65.17;95057.19;5117134;28;1036;-50
2022/04/06 05:02:45;;;;;;;;;;;;;;;5.16;65.63;95064.38;5116966;28;1200;-50
2022/04/06 05:05:14;;;;;;;;;;;;;;;5.23;65.73;95069.03;5116761;28;1044;-50
2022/04/06 05:07:40;;;;;;;;;;;;;;;5.18;66.00;95073.91;5116972;28;972;-50
2022/04/06 05:10:07;;;;;;;;;;;;;;;5.15;66.23;95068.84;5116788;28;1184;-50
2022/04/06 05:12:33;;;;;;;;;;;;;;;5.19;66.77;95077.38;5116120;28;1076;-51
2022/04/06 05:14:59;;;;;;;;;;;;;;;5.19;68.24;95080.88;5116995;28;957;-49
2022/04/06 05:17:26;;;;;;;;;;;;;;;5.26;67.74;95081.19;5116731;28;1914;-50
2022/04/06 05:19:52;;;;;;;;;;;;;;;5.30;67.93;95082.63;5116414;28;1084;-50
2022/04/06 05:22:18;;;;;;;;;;;;;;;5.41;67.99;95084.38;5116553;28;956;-50
2022/04/06 05:24:44;;;;;;;;;;;;;;;5.41;68.29;95094.97;5116539;27;1027;-50
2022/04/06 05:27:10;;;;;;;;;;;;;;;5.45;68.72;95088.44;5116412;27;980;-50
2022/04/06 05:29:36;;;;;;;;;;;;;;;5.66;68.06;95091.88;5116331;28;1076;-50
2022/04/06 05:32:03;;;;;;;;;;;;;;;5.81;67.78;95096.84;5116402;28;1046;-50
2022/04/06 05:34:29;;;;;;;;;;;;;;;6.01;66.97;95092.47;5116379;28;1036;-50
2022/04/06 05:36:55;;;;;;;;;;;;;;;6.08;67.27;95098.91;5114900;28;1984;-50
2022/04/06 05:41:23;;;;;;;;;;;;;;;6.45;65.98;95091.19;5128526;27;1373579;-49
2022/04/06 05:43:50;;;;;;;;;;;;;;;6.70;65.82;95098.78;5172980;27;991;-49
2022/04/06 05:46:16;;;;;;;;;;;;;;;6.75;63.97;95091.22;5173125;27;1008;-49
2022/04/06 05:48:42;;;;;;;;;;;;;;;6.86;62.44;95095.56;5172855;27;1075;-49
2022/04/06 05:51:08;;;;;;;;;;;;;;;7.00;63.64;95101.28;5168605;27;1152;-49
2022/04/06 05:53:34;;;;;;;;;;;;;;;7.06;62.24;95097.25;5152312;27;976;-49
2022/04/06 05:56:00;;;;;;;;;;;;;;;7.17;62.77;95112.19;5152006;27;1019;-49
2022/04/06 05:58:26;;;;;;;;;;;;;;;7.40;63.32;95102.94;5151823;27;1242;-49
2022/04/06 06:00:52;;;;;;;;;;;;;;;7.61;63.23;95107.22;5151853;27;1909;-48
2022/04/06 06:03:18;;;;;;;;;;;;;;;7.95;62.28;95101.38;5152138;27;944;-49
2022/04/06 06:05:44;;;;;;;;;;;;;;;8.02;61.71;95100.66;5152098;27;1044;-49
2022/04/06 06:08:10;;;;;;;;;;;;;;;8.34;60.61;95096.69;5151779;27;1032;-49
2022/04/06 06:10:37;;;;;;;;;;;;;;;8.54;60.58;95097.47;5151839;27;1011;-49
2022/04/06 06:13:03;;;;;;;;;;;;;;;8.89;59.47;95093.13;5151366;27;1051;-49
2022/04/06 06:15:29;;;;;;;;;;;;;;;9.05;58.87;95095.13;5151808;27;989;-48
2022/04/06 06:17:55;;;;;;;;;;;;;;;9.32;58.28;95090.69;5151823;27;964;-49
2022/04/06 06:20:21;;;;;;;;;;;;;;;9.94;57.51;95091.44;5151669;27;1988;-49
2022/04/06 06:22:47;;;;;;;;;;;;;;;10.18;55.89;95086.38;5151467;27;1257;-49
2022/04/06 06:25:13;;;;;;;;;;;;;;;10.42;55.62;95091.84;5151524;27;972;-49
2022/04/06 06:27:40;;;;;;;;;;;;;;;10.89;54.40;95090.47;5151754;27;1048;-48
2022/04/06 06:30:07;;;;;;;;;;;;;;;11.24;52.72;95093.84;5151172;27;1103;-49
2022/04/06 06:32:33;;;;;;;;;;;;;;;11.20;53.76;95093.34;5151604;27;917;-49
2022/04/06 06:34:59;;;;;;;;;;;;;;;11.44;52.45;95089.00;5151408;27;989;-49
2022/04/06 06:37:25;;;;;;;;;;;;;;;12.08;50.05;95091.78;5151407;27;1022;-49
2022/04/06 06:39:54;;;;;;;;;;;;;;;13.04;47.77;95085.28;5150885;27;1993;-49
2022/04/06 06:42:20;;;;;;;;;;;;;;;15.42;43.42;95098.03;5150772;27;1103;-49
2022/04/06 06:44:46;;;;;;;;;;;;;;;17.71;37.88;95094.53;5150938;27;1019;-50
2022/04/06 06:47:13;;;;;;;;;;;;;;;20.06;33.86;95096.25;5151379;27;1036;-50
2022/04/06 06:49:45;;;;;;;;;;;;;;;21.59;31.32;95094.59;5151064;27;1044;-50
2022/04/06 06:52:11;;;;;;;;;;;;;;;23.08;29.20;95100.06;5140807;27;1245;-51
2022/04/06 06:54:39;;;;;;;;;;;;;;;24.58;27.13;95102.53;5136962;27;1102;-51
2022/04/06 06:57:05;;;;;;;;;;;;;;;25.91;25.74;95100.66;5137300;27;969;-51
2022/04/06 06:59:31;;;;;;;;;;;;;;;25.93;25.17;95095.78;5137218;27;1990;-51
2022/04/06 07:01:57;;;;;;;;;;;;;;;26.87;24.97;95088.06;5136963;27;1005;-51
2022/04/06 07:04:23;;;;;;;;;;;;;;;27.17;23.98;95090.13;5137152;27;970;-51
2022/04/06 07:06:49;;;;;;;;;;;;;;;27.80;23.65;95092.84;5136899;27;1071;-51
2022/04/06 07:09:16;;;;;;;;;;;;;;;27.63;23.35;95093.09;5136755;27;1027;-51
2022/04/06 07:11:42;;;;;;;;;;;;;;;28.05;22.91;95094.03;5136769;27;1011;-51
2022/04/06 07:14:08;;;;;;;;;;;;;;;28.22;22.64;95094.59;5136565;27;1211;-51
2022/04/06 07:16:34;;;;;;;;;;;;;;;29.04;21.96;95101.16;5136645;27;1027;-51
2022/04/06 07:19:00;;;;;;;;;;;;;;;28.58;21.65;95102.06;5136645;27;1091;-51
2022/04/06 07:21:26;;;;;;;;;;;;;;;29.67;21.68;95108.94;5136774;27;969;-51
2022/04/06 07:23:54;;;;;;;;;;;;;;;29.23;21.31;95116.00;5136666;27;960;-52
2022/04/06 07:26:20;;;;;;;;;;;;;;;29.11;20.98;95109.94;5136267;27;1024;-52
2022/04/06 07:28:46;;;;;;;;;;;;;;;29.12;21.66;95108.84;5136425;27;1261;-51
2022/04/06 07:31:13;;;;;;;;;;;;;;;28.96;21.17;95108.88;5136625;27;1068;-51
2022/04/06 07:33:40;;;;;;;;;;;;;;;27.85;23.09;95094.81;5136445;27;1067;-51
2022/04/06 07:36:06;;;;;;;;;;;;;;;27.09;23.88;95098.88;5136159;27;999;-51
2022/04/06 07:38:32;;;;;;;;;;;;;;;25.20;24.73;95092.47;5136598;27;976;-50
2022/04/06 07:40:59;;;;;;;;;;;;;;;23.08;28.59;95086.41;5127045;27;1906;-50
2022/04/06 07:43:25;;;;;;;;;;;;;;;21.78;30.38;95094.53;5115738;28;1003;-50
2022/04/06 07:45:51;;;;;;;;;;;;;;;20.76;31.69;95084.31;5115562;28;995;-50
2022/04/06 07:48:17;;;;;;;;;;;;;;;20.55;32.35;95096.44;5115577;28;1024;-50
2022/04/06 07:50:43;;;;;;;;;;;;;;;20.19;34.19;95085.28;5114421;28;1161;-50
2022/04/06 07:53:09;;;;;;;;;;;;;;;19.80;33.26;95087.25;5095019;28;1028;-50
2022/04/06 07:55:35;;;;;;;;;;;;;;;19.80;33.84;95083.72;5094663;28;969;-50
2022/04/06 07:58:01;;;;;;;;;;;;;;;19.65;33.29;95082.13;5095211;28;1000;-50
2022/04/06 08:00:33;;;;;;;;;;;;;;;19.58;34.36;95083.19;5094649;28;2004;-50
2022/04/06 08:02:59;;;;;;;;;;;;;;;19.60;34.32;95079.25;5093959;28;966;-50
2022/04/06 08:05:25;;;;;;;;;;;;;;;19.50;35.13;95085.16;5094740;28;1073;-50
2022/04/06 08:07:53;;;;;;;;;;;;;;;19.78;33.89;95081.22;5094651;28;1049;-50
2022/04/06 08:10:19;;;;;;;;;;;;;;;20.18;34.97;95072.75;5094814;28;988;-50
2022/04/06 08:12:46;;;;;;;;;;;;;;;20.18;34.60;95080.06;5094616;28;1084;-50
2022/04/06 08:15:13;;;;;;;;;;;;;;;20.44;34.45;95085.25;5094893;28;1088;-50
2022/04/06 08:17:40;;;;;;;;;;;;;;;20.18;34.44;95077.34;5094603;28;1001;-50
2022/04/06 08:20:11;;;;;;;;;;;;;;;20.46;33.69;95069.56;5094412;28;1983;-49
2022/04/06 08:22:38;;;;;;;;;;;;;;;20.40;34.70;95073.16;5094350;28;1014;-50
2022/04/06 08:25:05;;;;;;;;;;;;;;;20.21;33.95;95068.78;5094540;28;1076;-50
2022/04/06 08:27:32;;;;;;;;;;;;;;;19.66;35.60;95061.25;5094492;28;1030;-50
2022/04/06 08:29:58;;;;;;;;;;;;;;;19.54;37.01;95066.56;5094239;28;1009;-50
2022/04/06 08:32:24;;;;;;;;;;;;;;;19.73;36.39;95074.78;5094084;28;1055;-50
2022/04/06 08:34:50;;;;;;;;;;;;;;;19.83;36.49;95061.59;5094414;28;973;-50
2022/04/06 08:37:16;;;;;;;;;;;;;;;19.75;36.42;95064.56;5094100;28;1027;-49
2022/04/06 08:39:42;;;;;;;;;;;;;;;19.80;36.07;95064.72;5076385;28;1988;-50
2022/04/06 08:42:09;;;;;;;;;;;;;;;19.17;36.60;95052.00;5112033;28;1309;-49
2022/04/06 08:44:36;;;;;;;;;;;;;;;19.04;37.64;95053.69;5114491;28;1062;-49
2022/04/06 08:47:03;;;;;;;;;;;;;;;19.04;38.42;95052.88;5114160;28;1063;-49
2022/04/06 08:49:29;;;;;;;;;;;;;;;19.04;37.64;95047.47;5114664;28;1052;-49
2022/04/06 08:51:55;;;;;;;;;;;;;;;18.98;37.47;95043.75;5125294;27;1161;-49
2022/04/06 08:54:25;;;;;;;;;;;;;;;19.22;36.97;95038.63;5135087;27;960;-50
2022/04/06 08:56:51;;;;;;;;;;;;;;;19.06;38.21;95037.22;5134792;27;999;-50
2022/04/06 08:59:17;;;;;;;;;;;;;;;19.19;37.91;95039.88;5135071;27;1909;-50
2022/04/06 09:01:43;;;;;;;;;;;;;;;19.61;37.98;95036.69;5134539;27;1948;-50
2022/04/06 09:04:09;;;;;;;;;;;;;;;19.50;36.17;95030.06;5116561;27;1025;-50
2022/04/06 09:06:39;;;;;;;;;;;;;;;19.34;37.24;95027.91;5134737;27;1032;-50
2022/04/06 09:09:05;;;;;;;;;;;;;;;19.62;36.40;95022.91;5134790;27;1037;-49
2022/04/06 09:11:39;;;;;;;;;;;;;;;19.51;37.74;95018.19;5134391;27;1024;-50
2022/04/06 09:14:05;;;;;;;;;;;;;;;19.48;35.98;95022.19;5134089;27;1036;-49
2022/04/06 09:16:32;;;;;;;;;;;;;;;19.72;38.26;95019.72;5134469;27;950;-50
2022/04/06 09:19:06;;;;;;;;;;;;;;;19.87;37.34;95017.50;5134500;27;999;-49
2022/04/06 09:21:38;;;;;;;;;;;;;;;20.00;34.83;95013.03;5134330;27;1075;-49
2022/04/06 09:24:04;;;;;;;;;;;;;;;19.85;35.19;95005.22;5134280;27;1091;-50
2022/04/06 09:26:31;;;;;;;;;;;;;;;19.86;34.10;95006.88;5134277;27;1947;-50
2022/04/06 09:28:57;;;;;;;;;;;;;;;20.10;35.83;94994.34;5134346;27;1933;-50
2022/04/06 09:31:23;;;;;;;;;;;;;;;20.32;34.59;94992.03;5134637;27;1172;-50
2022/04/06 09:33:59;;;;;;;;;;;;;;;20.47;33.99;94988.94;5133985;27;1084;-50
2022/04/06 09:36:29;;;;;;;;;;;;;;;20.28;34.12;94985.38;5134286;27;1023;-50
2022/04/06 09:38:55;;;;;;;;;;;;;;;20.21;33.84;94985.44;5133966;28;1004;-50
2022/04/06 09:41:21;;;;;;;;;;;;;;;20.41;34.77;94982.53;5122191;28;1985;-49
2022/04/06 09:43:48;;;;;;;;;;;;;;;20.72;35.05;94975.28;5113243;28;1024;-49
2022/04/06 09:49:08;;;;;;;;;;;;;;;19.99;30.89;94971.47;5113305;28;1855;-49
2022/04/06 09:51:38;;;;;;;;;;;;;;;19.95;32.00;94958.59;5105572;28;1216;-49
2022/04/06 09:54:05;;;;;;;;;;;;;;;20.37;34.85;94956.03;5074888;28;1077;-50
2022/04/06 09:56:32;;;;;;;;;;;;;;;20.58;30.85;94949.31;5093057;28;1844;-49
2022/04/06 09:58:59;;;;;;;;;;;;;;;20.70;30.39;94944.81;5092727;28;1041;-50
2022/04/06 10:01:33;;;;;;;;;;;;;;;20.75;30.77;94947.63;5093176;28;2000;-50
2022/04/06 10:04:04;;;;;;;;;;;;;;;20.86;31.46;94941.44;5092781;28;1123;-49
2022/04/06 10:06:34;;;;;;;;;;;;;;;20.91;32.50;94937.22;5093250;28;949;-49
2022/04/06 10:09:01;;;;;;;;;;;;;;;21.14;30.86;94931.03;5092628;28;1013;-50
2022/04/06 10:11:27;;;;;;;;;;;;;;;20.86;28.67;94916.97;5092822;28;1036;-49
2022/04/06 10:13:56;;;;;;;;;;;;;;;20.63;30.68;94916.91;5092457;28;1087;-49
2022/04/06 10:16:23;;;;;;;;;;;;;;;20.52;29.88;94913.03;5093279;28;1064;-49
2022/04/06 10:18:50;;;;;;;;;;;;;;;20.55;30.81;94911.75;5092846;28;966;-49
2022/04/06 10:21:26;;;;;;;;;;;;;;;20.72;31.03;94907.38;5093029;28;1905;-49
2022/04/06 10:24:30;;;;;;;;;;;;;;;20.80;30.74;94904.31;5092415;28;1213;-49
2022/04/06 10:26:59;;;;;;;;;;;;;;;21.03;31.51;94895.41;4992687;28;1309;-49
2022/04/06 10:29:25;;;;;;;;;;;;;;;20.85;32.72;94882.72;4978520;28;970;-50
2022/04/06 10:31:51;;;;;;;;;;;;;;;20.79;31.77;94886.38;5044661;28;1061;-50
2022/04/06 10:34:17;;;;;;;;;;;;;;;20.67;31.95;94874.63;5096314;28;933;-50
2022/04/06 10:36:44;;;;;;;;;;;;;;;20.63;32.27;94876.16;5096715;28;984;-50
2022/04/06 10:39:11;;;;;;;;;;;;;;;20.81;32.27;94867.94;5096077;28;1976;-50
2022/04/06 10:41:39;;;;;;;;;;;;;;;20.92;32.52;94865.50;5110277;28;1091;-50
2022/04/06 10:44:05;;;;;;;;;;;;;;;20.99;33.07;94858.06;5116634;28;972;-50
2022/04/06 10:46:34;;;;;;;;;;;;;;;21.04;32.71;94855.50;5116805;28;1021;-49
2022/04/06 10:49:06;;;;;;;;;;;;;;;20.84;32.43;94856.59;5116239;28;1032;-50
2022/04/06 10:51:37;;;;;;;;;;;;;;;20.78;33.04;94852.09;5124475;27;1150;-49
2022/04/06 10:54:12;;;;;;;;;;;;;;;20.64;32.08;94839.75;5136735;27;1079;-50
2022/04/06 10:56:50;;;;;;;;;;;;;;;20.69;33.81;94847.25;5137102;27;1031;-50
2022/04/06 10:59:17;;;;;;;;;;;;;;;20.74;33.83;94842.78;5136862;27;1986;-49
2022/04/06 11:01:46;;;;;;;;;;;;;;;20.65;33.16;94844.16;5136927;27;988;-49
2022/04/06 11:04:16;;;;;;;;;;;;;;;20.35;32.38;94831.38;5136729;27;1024;-49
2022/04/06 11:07:00;;;;;;;;;;;;;;;20.25;34.98;94828.38;5136792;27;1087;-50
2022/04/06 11:12:14;;;;;;;;;;;;;;;20.80;34.08;94816.56;5136945;27;961;-50
2022/04/06 11:14:41;;;;;;;;;;;;;;;20.81;34.35;94816.34;5136549;27;1072;-50
2022/04/06 11:17:26;;;;;;;;;;;;;;;20.83;34.40;94813.34;5136912;27;955;-50
2022/04/06 11:19:52;;;;;;;;;;;;;;;20.45;32.27;94807.22;5136660;27;1918;-50
2022/04/06 11:22:21;;;;;;;;;;;;;;;20.08;32.35;94804.59;5136846;27;1052;-50
2022/04/06 11:24:48;;;;;;;;;;;;;;;20.22;34.78;94804.41;5136232;27;1028;-50
2022/04/06 11:27:29;;;;;;;;;;;;;;;20.38;32.71;94801.06;5136732;27;1026;-50
2022/04/06 11:30:21;;;;;;;;;;;;;;;20.40;32.86;94795.41;5136207;27;1850;-49
2022/04/06 11:32:51;;;;;;;;;;;;;;;20.44;33.61;94791.16;5132619;27;1857;-51
2022/04/06 11:35:17;;;;;;;;;;;;;;;20.45;33.76;94784.66;5134249;27;2898;-50
2022/04/06 11:37:50;;;;;;;;;;;;;;;20.48;34.74;94774.16;5135579;27;1040;-50
2022/04/06 11:40:17;;;;;;;;;;;;;;;20.58;34.37;94772.78;5134755;27;2000;-51
2022/04/06 11:42:48;;;;;;;;;;;;;;;20.52;33.32;94776.44;5135779;27;964;-51
2022/04/06 11:45:18;;;;;;;;;;;;;;;20.44;32.53;94764.00;5135757;27;1095;-50
2022/04/06 11:47:51;;;;;;;;;;;;;;;20.55;32.96;94762.41;5136141;27;1040;-49
2022/04/06 11:50:17;;;;;;;;;;;;;;;20.54;32.68;94764.25;5136128;27;1035;-50
2022/04/06 11:52:43;;;;;;;;;;;;;;;20.48;32.79;94760.59;5136132;27;1212;-50
2022/04/06 11:55:09;;;;;;;;;;;;;;;20.46;32.49;94751.84;5136060;27;1003;-50
2022/04/06 11:57:37;;;;;;;;;;;;;;;20.53;32.82;94754.47;5136260;27;1035;-50
2022/04/06 12:00:08;;;;;;;;;;;;;;;20.62;32.99;94749.53;5135115;27;1909;-49
2022/04/06 12:02:47;;;;;;;;;;;;;;;20.64;30.72;94740.13;5135845;27;1031;-49
2022/04/06 12:05:13;;;;;;;;;;;;;;;20.67;29.10;94744.25;5135782;27;967;-49
2022/04/06 12:07:39;;;;;;;;;;;;;;;20.64;30.87;94740.13;5135546;27;1000;-50
2022/04/06 12:10:06;;;;;;;;;;;;;;;20.68;29.55;94743.19;5135332;27;1021;-49
2022/04/06 12:12:35;;;;;;;;;;;;;;;20.66;29.81;94740.72;5135355;27;973;-49
2022/04/06 12:15:02;;;;;;;;;;;;;;;20.74;31.41;94731.38;5135585;27;1055;-50
2022/04/06 12:17:28;;;;;;;;;;;;;;;20.75;30.09;94722.16;5135744;27;969;-50
2022/04/06 12:19:54;;;;;;;;;;;;;;;20.76;27.94;94721.13;5135278;27;1917;-50
2022/04/06 12:22:24;;;;;;;;;;;;;;;20.73;28.45;94724.28;5135357;27;1012;-50
2022/04/06 12:24:51;;;;;;;;;;;;;;;20.82;28.56;94722.88;5135419;27;932;-51
2022/04/06 12:27:27;;;;;;;;;;;;;;;20.83;26.12;94713.69;5135168;27;1027;-51
2022/04/06 12:30:10;;;;;;;;;;;;;;;20.69;26.48;94703.28;5135236;27;968;-50
2022/04/06 12:32:46;;;;;;;;;;;;;;;20.60;26.14;94698.19;5135333;27;1081;-49
2022/04/06 12:35:18;;;;;;;;;;;;;;;20.66;26.41;94696.44;5134966;27;1016;-49
2022/04/06 12:37:44;;;;;;;;;;;;;;;20.79;26.52;94690.78;5134829;27;1063;-49
2022/04/06 12:40:10;;;;;;;;;;;;;;;20.87;27.04;94676.00;5133087;27;1910;-50
2022/04/06 12:42:37;;;;;;;;;;;;;;;20.72;27.23;94684.63;5114548;28;971;-49
2022/04/06 12:45:06;;;;;;;;;;;;;;;20.72;26.74;94690.06;5114258;28;1003;-50
2022/04/06 12:47:32;;;;;;;;;;;;;;;20.72;27.52;94676.47;5114642;28;1055;-49
2022/04/06 12:50:21;;;;;;;;;;;;;;;20.75;26.94;94675.97;5095402;28;1025;-48
2022/04/06 12:53:02;;;;;;;;;;;;;;;20.79;27.00;94668.19;5095792;28;1153;-49
2022/04/06 12:55:28;;;;;;;;;;;;;;;20.90;28.17;94671.97;5093995;28;996;-49
2022/04/06 12:58:12;;;;;;;;;;;;;;;20.92;27.66;94670.66;5094013;28;1004;-49
2022/04/06 13:00:39;;;;;;;;;;;;;;;20.90;27.86;94669.25;5093525;28;1902;-50
2022/04/06 13:03:05;;;;;;;;;;;;;;;20.83;26.74;94664.78;5093903;28;954;-50
2022/04/06 13:05:31;;;;;;;;;;;;;;;20.83;26.97;94662.06;5093764;28;1053;-50
2022/04/06 13:07:57;;;;;;;;;;;;;;;20.84;26.76;94654.72;5075591;28;993;-50
2022/04/06 13:10:28;;;;;;;;;;;;;;;20.84;26.71;94663.69;5093763;28;1028;-50
2022/04/06 13:12:54;;;;;;;;;;;;;;;20.83;26.90;94661.22;5093349;28;1037;-51
2022/04/06 13:15:20;;;;;;;;;;;;;;;20.82;27.58;94657.69;5093249;28;1028;-50
2022/04/06 13:17:47;;;;;;;;;;;;;;;20.72;27.30;94660.19;5093666;28;952;-50
2022/04/06 13:20:14;;;;;;;;;;;;;;;20.77;27.08;94651.31;5093145;28;1906;-50